createdAt,value
2019-04-25T00:04:22.928Z,52.38
2019-04-25T00:09:32.299Z,52.38
2019-04-25T00:14:40.095Z,52.45
2019-04-25T00:19:48.599Z,52.75
2019-04-25T00:25:17.553Z,52.75
2019-04-25T00:30:24.561Z,52.84
2019-04-25T00:35:31.580Z,54.78
2019-04-25T00:40:38.573Z,55.42
2019-04-25T00:45:45.778Z,55.98
2019-04-25T00:50:54.536Z,55.98
2019-04-25T00:56:01.617Z,59.46
2019-04-25T01:01:21.869Z,61.56
2019-04-25T01:06:29.514Z,61.94
2019-04-25T01:11:36.595Z,62.71
2019-04-25T01:16:44.939Z,63.21
2019-04-25T01:21:54.794Z,63.21
2019-04-25T01:27:00.300Z,63.87
2019-04-25T01:32:09.282Z,64.13
2019-04-25T01:37:34.075Z,64.47
2019-04-25T01:42:59.547Z,64.77
2019-04-25T01:48:08.231Z,64.77
2019-04-25T01:53:14.650Z,64.70
2019-04-25T01:58:21.589Z,64.84
2019-04-25T02:03:29.023Z,64.55
2019-04-25T02:08:36.571Z,64.55
2019-04-25T02:13:43.838Z,65.15
2019-04-25T02:18:52.448Z,65.15
2019-04-25T02:24:00.585Z,64.92
2019-04-25T02:29:07.931Z,65.35
2019-04-25T02:34:18.064Z,65.35
2019-04-25T02:39:25.261Z,65.17
2019-04-25T02:44:34.592Z,65.21
2019-04-25T02:50:03.491Z,65.37
2019-04-25T02:55:12.709Z,65.37
2019-04-25T03:00:45.945Z,65.56
2019-04-25T03:05:38.620Z,65.43
2019-04-25T03:10:45.585Z,65.30
2019-04-25T03:15:53.536Z,65.72
2019-04-25T03:21:13.374Z,65.72
2019-04-25T03:26:15.471Z,66.07
2019-04-25T03:31:26.714Z,66.29
2019-04-25T03:36:31.577Z,66.29
2019-04-25T03:41:38.557Z,66.52
2019-04-25T03:46:45.617Z,66.52
2019-04-25T03:51:53.852Z,66.57
2019-04-25T03:57:02.472Z,66.57
2019-04-25T04:02:10.943Z,66.77
2019-04-25T04:07:18.540Z,67.04
2019-04-25T04:12:25.583Z,67.29
2019-04-25T04:17:47.098Z,67.44
2019-04-25T04:23:01.389Z,67.44
2019-04-25T04:28:09.769Z,67.64
2019-04-25T04:33:29.823Z,67.48
2019-04-25T04:38:24.310Z,67.06
2019-04-25T04:43:31.504Z,66.92
2019-04-25T04:48:38.591Z,66.97
2019-04-25T04:53:45.520Z,67.05
2019-04-25T04:58:53.971Z,67.05
2019-04-25T05:04:25.226Z,67.05
2019-04-25T05:09:33.481Z,66.96
2019-04-25T05:14:40.455Z,66.96
2019-04-25T05:19:47.579Z,67.05
2019-04-25T05:24:54.558Z,67.07
2019-04-25T05:30:01.579Z,67.03
2019-04-25T05:35:08.892Z,67.03
2019-04-25T05:40:17.164Z,67.03
2019-04-25T05:45:27.526Z,67.24
2019-04-25T05:50:34.582Z,67.33
2019-04-25T05:55:41.568Z,67.17
2019-04-25T06:00:50.272Z,67.09
2019-04-25T06:05:57.503Z,67.09
2019-04-25T06:11:26.243Z,66.43
2019-04-25T06:16:35.241Z,65.40
2019-04-25T06:21:43.533Z,64.37
2019-04-25T06:27:22.122Z,63.17
2019-04-25T06:32:29.498Z,61.12
2019-04-25T06:37:36.460Z,58.39
2019-04-25T06:42:46.451Z,58.39
2019-04-25T06:48:03.989Z,57.30
2019-04-25T06:53:13.579Z,57.30
2019-04-25T06:58:21.419Z,57.38
2019-04-25T07:03:29.618Z,55.35
2019-04-25T07:08:36.584Z,54.81
2019-04-25T07:13:43.932Z,54.50
2019-04-25T07:18:51.482Z,54.50
2019-04-25T07:23:58.510Z,54.42
2019-04-25T07:29:23.538Z,54.76
2019-04-25T07:34:30.717Z,54.25
2019-04-25T07:39:37.589Z,52.31
2019-04-25T07:44:51.965Z,52.06
2019-04-25T07:49:54.212Z,52.06
2019-04-25T07:55:01.473Z,52.05
2019-04-25T08:00:14.701Z,52.06
2019-04-25T08:05:22.067Z,52.06
2019-04-25T08:10:35.983Z,51.49
2019-04-25T08:15:50.278Z,51.52
2019-04-25T08:20:57.616Z,51.09
2019-04-25T08:26:04.620Z,49.73
2019-04-25T08:31:13.434Z,49.38
2019-04-25T08:36:20.599Z,49.38
2019-04-25T08:41:27.546Z,48.32
2019-04-25T08:46:36.765Z,48.32
2019-04-25T08:51:44.506Z,45.26
2019-04-25T08:56:53.173Z,45.30
2019-04-25T09:02:23.512Z,43.78
2019-04-25T09:07:30.589Z,42.65
2019-04-25T09:12:37.778Z,39.47
2019-04-25T09:17:47.044Z,39.47
2019-04-25T09:22:54.307Z,35.96
2019-04-25T09:28:01.577Z,34.52
2019-04-25T09:33:09.452Z,33.38
2019-04-25T09:38:16.588Z,32.39
2019-04-25T09:43:23.600Z,31.47
2019-04-25T09:48:44.294Z,30.43
2019-04-25T09:53:57.718Z,30.43
2019-04-25T09:59:13.789Z,29.95
2019-04-25T10:04:22.956Z,28.76
2019-04-25T10:09:30.552Z,27.55
2019-04-25T10:15:42.996Z,26.07
2019-04-25T10:20:52.100Z,25.00
2019-04-25T10:25:59.494Z,25.00
2019-04-25T10:31:06.591Z,24.62
2019-04-25T10:36:14.600Z,23.00
2019-04-25T10:41:22.260Z,23.00
2019-04-25T10:46:29.446Z,23.18
2019-04-25T10:51:36.450Z,22.58
2019-04-25T10:56:45.661Z,22.19
2019-04-25T11:01:53.868Z,21.60
2019-04-25T11:07:03.618Z,21.56
2019-04-25T11:12:14.532Z,22.18
2019-04-25T11:17:20.572Z,21.04
2019-04-25T11:22:27.542Z,20.98
2019-04-25T11:27:34.739Z,20.67
2019-04-25T11:32:44.784Z,20.87
2019-04-25T11:37:52.845Z,20.25
2019-04-25T11:42:59.584Z,20.07
2019-04-25T11:48:07.248Z,18.96
2019-04-25T11:53:13.324Z,18.96
2019-04-25T11:58:20.614Z,18.32
2019-04-25T12:03:27.948Z,17.32
2019-04-25T12:10:10.482Z,18.38
2019-04-25T12:15:16.311Z,16.14
2019-04-25T12:20:22.487Z,15.82
2019-04-25T12:25:29.550Z,16.01
2019-04-25T12:30:40.168Z,15.40
2019-04-25T12:35:45.435Z,14.80
2019-04-25T12:40:54.169Z,14.60
2019-04-25T12:46:20.247Z,14.47
2019-04-25T12:51:28.057Z,13.82
2019-04-25T12:56:35.257Z,12.92
2019-04-25T13:01:43.419Z,13.40
2019-04-25T13:06:50.582Z,13.17
2019-04-25T13:11:57.457Z,12.63
2019-04-25T13:17:08.016Z,13.10
2019-04-25T13:22:13.995Z,12.80
2019-04-25T13:28:26.991Z,12.39
2019-04-25T13:34:01.575Z,13.44
2019-04-25T13:39:16.342Z,12.97
2019-04-25T13:44:24.413Z,12.78
2019-04-25T13:49:31.675Z,11.97
2019-04-25T13:54:43.677Z,11.76
2019-04-25T13:59:50.587Z,11.17
2019-04-25T14:04:57.556Z,10.46
2019-04-25T14:10:10.574Z,10.46
2019-04-25T14:15:20.981Z,10.94
2019-04-25T14:20:34.419Z,10.53
2019-04-25T14:25:41.443Z,12.39
2019-04-25T14:30:48.581Z,10.61
2019-04-25T14:35:55.463Z,10.79
2019-04-25T14:41:02.476Z,10.79
2019-04-25T14:46:09.568Z,10.42
2019-04-25T14:51:16.616Z,10.39
2019-04-25T14:56:35.260Z,10.38
2019-04-25T15:01:44.943Z,10.38
2019-04-25T15:06:49.722Z,10.12
2019-04-25T15:11:56.558Z,9.66
2019-04-25T15:17:05.230Z,10.44
2019-04-25T15:22:11.310Z,10.44
2019-04-25T15:27:17.271Z,10.10
2019-04-25T15:32:27.577Z,9.92
2019-04-25T15:37:44.600Z,9.73
2019-04-25T15:43:07.244Z,11.24
2019-04-25T15:48:14.393Z,9.89
2019-04-25T15:53:22.097Z,9.77
2019-04-25T15:58:29.808Z,9.69
2019-04-25T16:03:36.914Z,9.75
2019-04-25T16:08:44.300Z,9.85
2019-04-25T16:13:51.603Z,10.05
2019-04-25T16:18:58.873Z,10.28
2019-04-25T16:24:06.504Z,10.28
2019-04-25T16:29:14.654Z,10.35
2019-04-25T16:34:21.684Z,10.09
2019-04-25T16:39:30.984Z,10.09
2019-04-25T16:44:37.311Z,10.03
2019-04-25T16:49:43.268Z,10.32
2019-04-25T16:54:50.413Z,10.59
2019-04-25T16:59:57.491Z,10.68
2019-04-25T17:05:04.698Z,10.69
2019-04-25T17:10:12.603Z,10.52
2019-04-25T17:15:32.052Z,11.08
2019-04-25T17:20:47.923Z,11.08
2019-04-25T17:25:53.960Z,11.38
2019-04-25T17:31:14.250Z,11.86
2019-04-25T17:36:39.294Z,12.29
2019-04-25T17:41:46.518Z,13.30
2019-04-25T17:46:52.360Z,14.25
2019-04-25T17:51:59.592Z,14.77
2019-04-25T17:57:07.456Z,16.07
2019-04-25T18:02:14.859Z,16.07
2019-04-25T18:07:21.879Z,17.24
2019-04-25T18:12:28.964Z,17.24
2019-04-25T18:17:35.016Z,17.71
2019-04-25T18:22:59.283Z,18.23
2019-04-25T18:28:13.943Z,18.75
2019-04-25T18:33:28.643Z,19.21
2019-04-25T18:39:00.525Z,20.70
2019-04-25T18:44:09.544Z,20.70
2019-04-25T18:49:16.599Z,21.24
2019-04-25T18:54:41.280Z,22.83
2019-04-25T19:00:05.569Z,22.83
2019-04-25T19:05:30.548Z,23.22
2019-04-25T19:10:39.409Z,23.71
2019-04-25T19:15:45.318Z,24.21
2019-04-25T19:20:52.591Z,24.74
2019-04-25T19:25:59.612Z,25.67
2019-04-25T19:31:06.625Z,25.98
2019-04-25T19:36:13.591Z,26.42
2019-04-25T19:41:29.258Z,26.67
2019-04-25T19:46:49.293Z,26.67
2019-04-25T19:51:56.588Z,26.88
2019-04-25T19:57:03.628Z,27.21
2019-04-25T20:02:18.122Z,28.04
2019-04-25T20:07:36.528Z,28.04
2019-04-25T20:12:48.510Z,28.32
2019-04-25T20:17:54.471Z,28.69
2019-04-25T20:23:01.605Z,29.23
2019-04-25T20:28:08.622Z,29.66
2019-04-25T20:33:15.521Z,29.47
2019-04-25T20:38:22.624Z,29.47
2019-04-25T20:43:29.575Z,30.03
2019-04-25T20:48:37.443Z,30.15
2019-04-25T20:53:44.608Z,30.15
2019-04-25T20:58:51.869Z,30.13
2019-04-25T21:03:58.626Z,30.13
2019-04-25T21:09:07.258Z,30.30
2019-04-25T21:14:27.430Z,30.30
2019-04-25T21:19:40.411Z,30.43
2019-04-25T21:24:47.574Z,30.67
2019-04-25T21:29:55.552Z,30.86
2019-04-25T21:35:02.558Z,31.05
2019-04-25T21:40:18.161Z,31.83
2019-04-25T21:45:24.316Z,31.83
2019-04-25T21:50:31.461Z,32.15
2019-04-25T21:55:38.773Z,32.45
2019-04-25T22:01:04.530Z,32.58
2019-04-25T22:06:13.483Z,32.67
2019-04-25T22:11:20.492Z,32.62
2019-04-25T22:16:27.588Z,32.70
2019-04-25T22:21:38.092Z,32.70
2019-04-25T22:26:43.619Z,32.92
2019-04-25T22:32:12.677Z,32.92
2019-04-25T22:37:20.263Z,33.11
2019-04-25T22:42:27.505Z,33.20
2019-04-25T22:47:34.460Z,33.51
2019-04-25T22:52:41.498Z,33.77
2019-04-25T22:57:48.448Z,34.07
2019-04-25T23:03:02.315Z,34.42
2019-04-25T23:08:10.142Z,34.66
2019-04-25T23:13:17.421Z,35.03
2019-04-25T23:18:24.668Z,35.37
2019-04-25T23:23:32.385Z,35.75
2019-04-25T23:28:41.586Z,35.75
2019-04-25T23:33:48.487Z,36.35
2019-04-25T23:38:55.602Z,36.35
2019-04-25T23:44:02.976Z,36.55
2019-04-25T23:49:10.626Z,36.80
2019-04-25T23:54:17.688Z,37.05
2019-04-25T23:59:24.583Z,37.36
